sensor_id;sensor_type;location;lat;lon;timestamp;P1;durP1;ratioP1;P2;durP2;ratioP2
69244;SDS011;56357;52.304;4.870;2022-12-20T00:00:58;3.90;;;1.20;;
69244;SDS011;56357;52.304;4.870;2022-12-20T00:03:25;4.47;;;1.50;;
69244;SDS011;56357;52.304;4.870;2022-12-20T00:05:51;5.28;;;1.40;;
69244;SDS011;56357;52.304;4.870;2022-12-20T00:08:18;3.95;;;1.40;;
69244;SDS011;56357;52.304;4.870;2022-12-20T00:10:45;5.38;;;1.48;;
69244;SDS011;56357;52.304;4.870;2022-12-20T00:13:12;4.82;;;1.20;;
69244;SDS011;56357;52.304;4.870;2022-12-20T00:15:38;4.73;;;1.30;;
69244;SDS011;56357;52.304;4.870;2022-12-20T00:18:05;4.43;;;1.30;;
69244;SDS011;56357;52.304;4.870;2022-12-20T00:20:32;4.32;;;1.10;;
69244;SDS011;56357;52.304;4.870;2022-12-20T00:22:59;4.28;;;1.20;;
69244;SDS011;56357;52.304;4.870;2022-12-20T00:25:25;5.13;;;1.40;;
69244;SDS011;56357;52.304;4.870;2022-12-20T00:27:52;4.53;;;1.47;;
69244;SDS011;56357;52.304;4.870;2022-12-20T00:30:18;3.67;;;1.00;;
69244;SDS011;56357;52.304;4.870;2022-12-20T00:32:45;4.20;;;0.90;;
69244;SDS011;56357;52.304;4.870;2022-12-20T00:35:12;4.18;;;1.00;;
69244;SDS011;56357;52.304;4.870;2022-12-20T00:37:39;4.00;;;1.10;;
69244;SDS011;56357;52.304;4.870;2022-12-20T00:40:05;3.60;;;1.27;;
69244;SDS011;56357;52.304;4.870;2022-12-20T00:42:32;3.53;;;1.00;;
69244;SDS011;56357;52.304;4.870;2022-12-20T00:44:59;4.10;;;1.40;;
69244;SDS011;56357;52.304;4.870;2022-12-20T00:47:25;3.90;;;1.10;;
69244;SDS011;56357;52.304;4.870;2022-12-20T00:49:52;4.80;;;1.10;;
69244;SDS011;56357;52.304;4.870;2022-12-20T00:52:18;4.43;;;1.47;;
69244;SDS011;56357;52.304;4.870;2022-12-20T00:54:44;3.47;;;1.00;;
69244;SDS011;56357;52.304;4.870;2022-12-20T00:57:11;4.25;;;1.30;;
69244;SDS011;56357;52.304;4.870;2022-12-20T00:59:37;3.97;;;1.10;;
69244;SDS011;56357;52.304;4.870;2022-12-20T01:02:04;4.20;;;1.10;;
69244;SDS011;56357;52.304;4.870;2022-12-20T01:04:30;4.80;;;1.13;;
69244;SDS011;56357;52.304;4.870;2022-12-20T01:06:57;4.43;;;1.15;;
69244;SDS011;56357;52.304;4.870;2022-12-20T01:09:23;4.68;;;1.20;;
69244;SDS011;56357;52.304;4.870;2022-12-20T01:11:49;3.90;;;1.15;;
69244;SDS011;56357;52.304;4.870;2022-12-20T01:14:17;4.13;;;1.05;;
69244;SDS011;56357;52.304;4.870;2022-12-20T01:16:44;4.67;;;1.27;;
69244;SDS011;56357;52.304;4.870;2022-12-20T01:19:12;3.97;;;1.00;;
69244;SDS011;56357;52.304;4.870;2022-12-20T01:21:40;4.75;;;1.27;;
69244;SDS011;56357;52.304;4.870;2022-12-20T01:24:12;4.78;;;1.25;;
69244;SDS011;56357;52.304;4.870;2022-12-20T01:26:40;3.83;;;1.13;;
69244;SDS011;56357;52.304;4.870;2022-12-20T01:29:07;3.73;;;1.13;;
69244;SDS011;56357;52.304;4.870;2022-12-20T01:31:34;4.85;;;1.30;;
69244;SDS011;56357;52.304;4.870;2022-12-20T01:34:00;3.63;;;1.08;;
69244;SDS011;56357;52.304;4.870;2022-12-20T01:36:28;4.88;;;1.30;;
69244;SDS011;56357;52.304;4.870;2022-12-20T01:38:57;5.18;;;1.20;;
69244;SDS011;56357;52.304;4.870;2022-12-20T01:41:25;3.93;;;1.37;;
69244;SDS011;56357;52.304;4.870;2022-12-20T01:43:54;4.22;;;1.20;;
69244;SDS011;56357;52.304;4.870;2022-12-20T01:46:34;3.65;;;0.90;;
69244;SDS011;56357;52.304;4.870;2022-12-20T01:49:11;4.75;;;1.42;;
69244;SDS011;56357;52.304;4.870;2022-12-20T01:54:23;3.90;;;1.17;;
69244;SDS011;56357;52.304;4.870;2022-12-20T01:57:02;4.72;;;1.10;;
69244;SDS011;56357;52.304;4.870;2022-12-20T01:59:32;4.35;;;0.88;;
69244;SDS011;56357;52.304;4.870;2022-12-20T02:02:03;4.47;;;1.35;;
69244;SDS011;56357;52.304;4.870;2022-12-20T02:04:33;4.70;;;1.30;;
69244;SDS011;56357;52.304;4.870;2022-12-20T02:07:00;4.57;;;1.00;;
69244;SDS011;56357;52.304;4.870;2022-12-20T02:09:28;4.80;;;0.90;;
69244;SDS011;56357;52.304;4.870;2022-12-20T02:12:01;4.18;;;1.05;;
69244;SDS011;56357;52.304;4.870;2022-12-20T02:26:03;3.90;;;1.02;;
69244;SDS011;56357;52.304;4.870;2022-12-20T02:29:02;3.33;;;1.05;;
69244;SDS011;56357;52.304;4.870;2022-12-20T02:32:08;3.70;;;0.90;;
69244;SDS011;56357;52.304;4.870;2022-12-20T02:34:37;4.83;;;1.20;;
69244;SDS011;56357;52.304;4.870;2022-12-20T02:37:06;4.28;;;1.25;;
69244;SDS011;56357;52.304;4.870;2022-12-20T02:39:33;4.30;;;1.05;;
69244;SDS011;56357;52.304;4.870;2022-12-20T02:42:06;3.80;;;0.98;;
69244;SDS011;56357;52.304;4.870;2022-12-20T02:44:37;3.40;;;0.90;;
69244;SDS011;56357;52.304;4.870;2022-12-20T02:47:28;3.90;;;1.00;;
69244;SDS011;56357;52.304;4.870;2022-12-20T02:49:58;4.55;;;1.02;;
69244;SDS011;56357;52.304;4.870;2022-12-20T02:52:26;4.07;;;0.80;;
69244;SDS011;56357;52.304;4.870;2022-12-20T02:54:55;3.88;;;1.10;;
69244;SDS011;56357;52.304;4.870;2022-12-20T02:57:24;3.50;;;0.90;;
69244;SDS011;56357;52.304;4.870;2022-12-20T03:02:33;4.50;;;0.93;;
69244;SDS011;56357;52.304;4.870;2022-12-20T03:05:14;4.97;;;1.65;;
69244;SDS011;56357;52.304;4.870;2022-12-20T03:07:41;5.30;;;1.23;;
69244;SDS011;56357;52.304;4.870;2022-12-20T03:10:08;3.50;;;1.00;;
69244;SDS011;56357;52.304;4.870;2022-12-20T03:12:35;3.73;;;1.00;;
69244;SDS011;56357;52.304;4.870;2022-12-20T03:15:01;4.30;;;1.30;;
69244;SDS011;56357;52.304;4.870;2022-12-20T03:17:28;4.93;;;1.15;;
69244;SDS011;56357;52.304;4.870;2022-12-20T03:19:54;3.60;;;1.20;;
69244;SDS011;56357;52.304;4.870;2022-12-20T03:22:21;3.75;;;1.10;;
69244;SDS011;56357;52.304;4.870;2022-12-20T03:24:47;4.87;;;1.33;;
69244;SDS011;56357;52.304;4.870;2022-12-20T03:27:15;4.15;;;1.17;;
69244;SDS011;56357;52.304;4.870;2022-12-20T03:29:41;3.58;;;1.00;;
69244;SDS011;56357;52.304;4.870;2022-12-20T03:32:09;4.85;;;1.25;;
69244;SDS011;56357;52.304;4.870;2022-12-20T03:34:36;3.90;;;1.10;;
69244;SDS011;56357;52.304;4.870;2022-12-20T03:37:02;4.80;;;1.10;;
69244;SDS011;56357;52.304;4.870;2022-12-20T03:39:29;4.38;;;1.23;;
69244;SDS011;56357;52.304;4.870;2022-12-20T03:41:55;4.18;;;1.02;;
69244;SDS011;56357;52.304;4.870;2022-12-20T03:44:22;3.38;;;1.00;;
69244;SDS011;56357;52.304;4.870;2022-12-20T03:46:49;4.68;;;1.00;;
69244;SDS011;56357;52.304;4.870;2022-12-20T03:49:15;3.30;;;0.80;;
69244;SDS011;56357;52.304;4.870;2022-12-20T03:51:42;3.40;;;0.90;;
69244;SDS011;56357;52.304;4.870;2022-12-20T03:54:09;3.40;;;0.73;;
69244;SDS011;56357;52.304;4.870;2022-12-20T03:56:35;3.50;;;1.10;;
69244;SDS011;56357;52.304;4.870;2022-12-20T03:59:01;4.38;;;0.95;;
69244;SDS011;56357;52.304;4.870;2022-12-20T04:01:28;3.67;;;0.97;;
69244;SDS011;56357;52.304;4.870;2022-12-20T04:03:55;3.05;;;0.77;;
69244;SDS011;56357;52.304;4.870;2022-12-20T04:06:22;4.43;;;1.45;;
69244;SDS011;56357;52.304;4.870;2022-12-20T04:08:48;4.03;;;1.00;;
69244;SDS011;56357;52.304;4.870;2022-12-20T04:11:15;4.18;;;1.15;;
69244;SDS011;56357;52.304;4.870;2022-12-20T04:13:48;3.77;;;1.20;;
69244;SDS011;56357;52.304;4.870;2022-12-20T04:16:16;4.30;;;1.00;;
69244;SDS011;56357;52.304;4.870;2022-12-20T04:18:44;3.42;;;0.80;;
69244;SDS011;56357;52.304;4.870;2022-12-20T04:21:11;5.00;;;1.13;;
69244;SDS011;56357;52.304;4.870;2022-12-20T04:23:39;4.38;;;1.10;;
69244;SDS011;56357;52.304;4.870;2022-12-20T04:26:07;3.10;;;0.90;;
69244;SDS011;56357;52.304;4.870;2022-12-20T04:28:34;3.60;;;0.82;;
69244;SDS011;56357;52.304;4.870;2022-12-20T04:31:01;3.83;;;1.10;;
69244;SDS011;56357;52.304;4.870;2022-12-20T04:33:28;3.67;;;0.90;;
69244;SDS011;56357;52.304;4.870;2022-12-20T04:35:55;4.43;;;1.10;;
69244;SDS011;56357;52.304;4.870;2022-12-20T04:38:22;3.20;;;0.90;;
69244;SDS011;56357;52.304;4.870;2022-12-20T04:40:53;3.88;;;0.98;;
69244;SDS011;56357;52.304;4.870;2022-12-20T04:43:21;3.47;;;0.82;;
69244;SDS011;56357;52.304;4.870;2022-12-20T04:45:49;3.72;;;1.02;;
69244;SDS011;56357;52.304;4.870;2022-12-20T04:48:17;4.10;;;0.93;;
69244;SDS011;56357;52.304;4.870;2022-12-20T04:50:48;4.50;;;1.20;;
69244;SDS011;56357;52.304;4.870;2022-12-20T04:53:15;3.50;;;1.00;;
69244;SDS011;56357;52.304;4.870;2022-12-20T04:56:00;4.35;;;1.13;;
69244;SDS011;56357;52.304;4.870;2022-12-20T04:58:27;3.97;;;1.15;;
69244;SDS011;56357;52.304;4.870;2022-12-20T05:00:54;3.80;;;0.90;;
69244;SDS011;56357;52.304;4.870;2022-12-20T05:03:21;4.43;;;0.97;;
69244;SDS011;56357;52.304;4.870;2022-12-20T05:05:49;3.83;;;0.70;;
69244;SDS011;56357;52.304;4.870;2022-12-20T05:08:15;3.63;;;0.80;;
69244;SDS011;56357;52.304;4.870;2022-12-20T05:10:42;3.13;;;0.95;;
69244;SDS011;56357;52.304;4.870;2022-12-20T05:13:08;3.13;;;0.70;;
69244;SDS011;56357;52.304;4.870;2022-12-20T05:15:35;3.50;;;1.00;;
69244;SDS011;56357;52.304;4.870;2022-12-20T05:18:02;4.82;;;1.02;;
69244;SDS011;56357;52.304;4.870;2022-12-20T05:20:29;3.95;;;1.10;;
69244;SDS011;56357;52.304;4.870;2022-12-20T05:22:56;2.97;;;0.80;;
69244;SDS011;56357;52.304;4.870;2022-12-20T05:25:45;4.68;;;1.13;;
69244;SDS011;56357;52.304;4.870;2022-12-20T05:28:31;3.97;;;1.20;;
69244;SDS011;56357;52.304;4.870;2022-12-20T05:30:58;3.85;;;1.00;;
69244;SDS011;56357;52.304;4.870;2022-12-20T05:33:25;2.85;;;0.85;;
69244;SDS011;56357;52.304;4.870;2022-12-20T05:35:51;4.30;;;1.08;;
69244;SDS011;56357;52.304;4.870;2022-12-20T05:38:18;3.72;;;0.90;;
69244;SDS011;56357;52.304;4.870;2022-12-20T05:40:46;3.70;;;1.20;;
69244;SDS011;56357;52.304;4.870;2022-12-20T05:43:14;3.25;;;1.00;;
69244;SDS011;56357;52.304;4.870;2022-12-20T05:45:44;4.45;;;1.40;;
69244;SDS011;56357;52.304;4.870;2022-12-20T05:48:15;4.13;;;1.38;;
69244;SDS011;56357;52.304;4.870;2022-12-20T05:50:42;4.03;;;0.80;;
69244;SDS011;56357;52.304;4.870;2022-12-20T05:53:12;5.30;;;1.23;;
69244;SDS011;56357;52.304;4.870;2022-12-20T05:55:43;4.93;;;1.20;;
69244;SDS011;56357;52.304;4.870;2022-12-20T05:58:10;3.40;;;0.80;;
69244;SDS011;56357;52.304;4.870;2022-12-20T06:00:41;3.63;;;1.00;;
69244;SDS011;56357;52.304;4.870;2022-12-20T06:03:09;4.30;;;0.90;;
69244;SDS011;56357;52.304;4.870;2022-12-20T06:05:37;3.67;;;0.80;;
69244;SDS011;56357;52.304;4.870;2022-12-20T06:08:04;3.55;;;0.80;;
69244;SDS011;56357;52.304;4.870;2022-12-20T06:10:32;3.47;;;0.85;;
69244;SDS011;56357;52.304;4.870;2022-12-20T06:13:00;4.28;;;1.17;;
69244;SDS011;56357;52.304;4.870;2022-12-20T06:15:27;3.67;;;1.08;;
69244;SDS011;56357;52.304;4.870;2022-12-20T06:17:54;3.77;;;1.03;;
69244;SDS011;56357;52.304;4.870;2022-12-20T06:20:21;3.67;;;1.00;;
69244;SDS011;56357;52.304;4.870;2022-12-20T06:22:48;4.22;;;1.13;;
69244;SDS011;56357;52.304;4.870;2022-12-20T06:25:16;4.72;;;1.10;;
69244;SDS011;56357;52.304;4.870;2022-12-20T06:27:43;3.40;;;1.00;;
69244;SDS011;56357;52.304;4.870;2022-12-20T06:30:10;4.47;;;1.20;;
69244;SDS011;56357;52.304;4.870;2022-12-20T06:32:37;5.00;;;1.10;;
69244;SDS011;56357;52.304;4.870;2022-12-20T06:35:04;4.78;;;1.05;;
69244;SDS011;56357;52.304;4.870;2022-12-20T06:37:30;5.03;;;1.08;;
69244;SDS011;56357;52.304;4.870;2022-12-20T06:39:57;4.38;;;0.85;;
69244;SDS011;56357;52.304;4.870;2022-12-20T06:42:24;5.30;;;1.40;;
69244;SDS011;56357;52.304;4.870;2022-12-20T06:44:50;6.43;;;1.35;;
69244;SDS011;56357;52.304;4.870;2022-12-20T06:47:16;4.55;;;1.00;;
69244;SDS011;56357;52.304;4.870;2022-12-20T06:49:43;4.28;;;1.10;;
69244;SDS011;56357;52.304;4.870;2022-12-20T06:52:09;6.07;;;0.95;;
69244;SDS011;56357;52.304;4.870;2022-12-20T06:54:36;6.80;;;1.40;;
69244;SDS011;56357;52.304;4.870;2022-12-20T06:57:02;8.85;;;1.20;;
69244;SDS011;56357;52.304;4.870;2022-12-20T06:59:30;9.55;;;1.65;;
69244;SDS011;56357;52.304;4.870;2022-12-20T07:01:57;5.55;;;1.42;;
69244;SDS011;56357;52.304;4.870;2022-12-20T07:04:23;6.32;;;1.20;;
69244;SDS011;56357;52.304;4.870;2022-12-20T07:06:50;4.07;;;1.03;;
69244;SDS011;56357;52.304;4.870;2022-12-20T07:09:17;6.82;;;0.93;;
69244;SDS011;56357;52.304;4.870;2022-12-20T07:11:43;8.88;;;1.52;;
69244;SDS011;56357;52.304;4.870;2022-12-20T07:14:10;5.75;;;1.80;;
69244;SDS011;56357;52.304;4.870;2022-12-20T07:16:36;6.63;;;1.80;;
69244;SDS011;56357;52.304;4.870;2022-12-20T07:19:05;7.30;;;1.30;;
69244;SDS011;56357;52.304;4.870;2022-12-20T07:21:32;8.45;;;1.30;;
69244;SDS011;56357;52.304;4.870;2022-12-20T07:23:58;5.57;;;1.02;;
69244;SDS011;56357;52.304;4.870;2022-12-20T07:26:25;6.18;;;1.10;;
69244;SDS011;56357;52.304;4.870;2022-12-20T07:28:51;8.32;;;1.27;;
69244;SDS011;56357;52.304;4.870;2022-12-20T07:31:18;5.97;;;1.47;;
69244;SDS011;56357;52.304;4.870;2022-12-20T07:33:44;5.00;;;1.00;;
69244;SDS011;56357;52.304;4.870;2022-12-20T07:36:11;6.50;;;1.35;;
69244;SDS011;56357;52.304;4.870;2022-12-20T07:38:40;8.35;;;1.48;;
69244;SDS011;56357;52.304;4.870;2022-12-20T07:41:11;5.95;;;1.20;;
69244;SDS011;56357;52.304;4.870;2022-12-20T07:43:39;7.53;;;1.23;;
69244;SDS011;56357;52.304;4.870;2022-12-20T07:46:06;7.03;;;1.38;;
69244;SDS011;56357;52.304;4.870;2022-12-20T07:48:35;6.78;;;1.55;;
69244;SDS011;56357;52.304;4.870;2022-12-20T07:51:07;8.73;;;1.52;;
69244;SDS011;56357;52.304;4.870;2022-12-20T07:53:38;5.70;;;1.33;;
69244;SDS011;56357;52.304;4.870;2022-12-20T07:56:09;8.10;;;1.70;;
69244;SDS011;56357;52.304;4.870;2022-12-20T07:58:37;6.38;;;1.67;;
69244;SDS011;56357;52.304;4.870;2022-12-20T08:01:05;11.02;;;1.35;;
69244;SDS011;56357;52.304;4.870;2022-12-20T08:03:35;8.48;;;1.40;;
69244;SDS011;56357;52.304;4.870;2022-12-20T08:06:07;10.52;;;1.67;;
69244;SDS011;56357;52.304;4.870;2022-12-20T08:08:35;5.80;;;1.17;;
69244;SDS011;56357;52.304;4.870;2022-12-20T08:11:05;6.05;;;1.13;;
69244;SDS011;56357;52.304;4.870;2022-12-20T08:13:34;6.00;;;1.38;;
69244;SDS011;56357;52.304;4.870;2022-12-20T08:16:01;6.00;;;1.20;;
69244;SDS011;56357;52.304;4.870;2022-12-20T08:18:28;5.32;;;1.13;;
69244;SDS011;56357;52.304;4.870;2022-12-20T08:20:55;5.60;;;1.30;;
69244;SDS011;56357;52.304;4.870;2022-12-20T08:23:22;5.25;;;0.98;;
69244;SDS011;56357;52.304;4.870;2022-12-20T08:25:48;9.48;;;1.40;;
69244;SDS011;56357;52.304;4.870;2022-12-20T08:28:15;6.38;;;1.02;;
69244;SDS011;56357;52.304;4.870;2022-12-20T08:30:41;7.60;;;1.08;;
69244;SDS011;56357;52.304;4.870;2022-12-20T08:33:08;4.13;;;1.17;;
69244;SDS011;56357;52.304;4.870;2022-12-20T08:35:35;5.80;;;0.98;;
69244;SDS011;56357;52.304;4.870;2022-12-20T08:38:01;5.05;;;1.02;;
69244;SDS011;56357;52.304;4.870;2022-12-20T08:40:28;4.82;;;1.15;;
69244;SDS011;56357;52.304;4.870;2022-12-20T08:42:54;5.03;;;0.95;;
69244;SDS011;56357;52.304;4.870;2022-12-20T08:45:21;3.70;;;1.00;;
69244;SDS011;56357;52.304;4.870;2022-12-20T08:47:47;5.75;;;1.35;;
69244;SDS011;56357;52.304;4.870;2022-12-20T08:50:14;5.30;;;1.00;;
69244;SDS011;56357;52.304;4.870;2022-12-20T08:52:40;4.35;;;0.98;;
69244;SDS011;56357;52.304;4.870;2022-12-20T08:55:07;4.93;;;1.20;;
69244;SDS011;56357;52.304;4.870;2022-12-20T08:57:33;6.07;;;1.30;;
69244;SDS011;56357;52.304;4.870;2022-12-20T09:00:00;6.43;;;1.10;;
69244;SDS011;56357;52.304;4.870;2022-12-20T09:02:27;4.57;;;1.10;;
69244;SDS011;56357;52.304;4.870;2022-12-20T09:04:54;3.17;;;0.70;;
69244;SDS011;56357;52.304;4.870;2022-12-20T09:07:20;4.90;;;0.90;;
69244;SDS011;56357;52.304;4.870;2022-12-20T09:09:47;4.37;;;1.00;;
69244;SDS011;56357;52.304;4.870;2022-12-20T09:12:13;5.55;;;1.15;;
69244;SDS011;56357;52.304;4.870;2022-12-20T09:14:40;4.43;;;1.05;;
69244;SDS011;56357;52.304;4.870;2022-12-20T09:17:06;3.25;;;0.90;;
69244;SDS011;56357;52.304;4.870;2022-12-20T09:19:33;6.68;;;1.33;;
69244;SDS011;56357;52.304;4.870;2022-12-20T09:21:59;4.27;;;1.10;;
69244;SDS011;56357;52.304;4.870;2022-12-20T09:24:26;5.45;;;0.80;;
69244;SDS011;56357;52.304;4.870;2022-12-20T09:26:52;4.97;;;0.98;;
69244;SDS011;56357;52.304;4.870;2022-12-20T09:29:19;5.32;;;1.10;;
69244;SDS011;56357;52.304;4.870;2022-12-20T09:31:46;4.60;;;0.82;;
69244;SDS011;56357;52.304;4.870;2022-12-20T09:34:14;4.27;;;0.90;;
69244;SDS011;56357;52.304;4.870;2022-12-20T09:36:41;7.75;;;1.10;;
69244;SDS011;56357;52.304;4.870;2022-12-20T09:39:07;4.22;;;1.00;;
69244;SDS011;56357;52.304;4.870;2022-12-20T09:41:39;6.45;;;1.05;;
69244;SDS011;56357;52.304;4.870;2022-12-20T09:44:12;4.07;;;0.80;;
69244;SDS011;56357;52.304;4.870;2022-12-20T09:46:57;3.90;;;0.87;;
69244;SDS011;56357;52.304;4.870;2022-12-20T09:49:32;3.78;;;0.80;;
69244;SDS011;56357;52.304;4.870;2022-12-20T09:58:11;5.22;;;0.90;;
69244;SDS011;56357;52.304;4.870;2022-12-20T10:00:34;5.37;;;0.87;;
69244;SDS011;56357;52.304;4.870;2022-12-20T10:03:02;4.47;;;1.00;;
69244;SDS011;56357;52.304;4.870;2022-12-20T10:05:38;4.28;;;0.82;;
69244;SDS011;56357;52.304;4.870;2022-12-20T10:19:12;3.38;;;0.80;;
69244;SDS011;56357;52.304;4.870;2022-12-20T10:25:15;3.78;;;0.80;;
69244;SDS011;56357;52.304;4.870;2022-12-20T10:27:48;4.27;;;0.90;;
69244;SDS011;56357;52.304;4.870;2022-12-20T10:30:19;4.00;;;0.80;;
69244;SDS011;56357;52.304;4.870;2022-12-20T10:32:48;4.25;;;0.80;;
69244;SDS011;56357;52.304;4.870;2022-12-20T10:35:29;3.80;;;1.10;;
69244;SDS011;56357;52.304;4.870;2022-12-20T10:40:32;3.40;;;0.73;;
69244;SDS011;56357;52.304;4.870;2022-12-20T10:43:01;4.95;;;0.75;;
69244;SDS011;56357;52.304;4.870;2022-12-20T10:45:37;3.38;;;1.17;;
69244;SDS011;56357;52.304;4.870;2022-12-20T10:53:36;4.03;;;0.80;;
69244;SDS011;56357;52.304;4.870;2022-12-20T10:58:57;3.50;;;0.90;;
69244;SDS011;56357;52.304;4.870;2022-12-20T11:01:32;3.40;;;0.80;;
69244;SDS011;56357;52.304;4.870;2022-12-20T11:04:02;3.90;;;0.90;;
69244;SDS011;56357;52.304;4.870;2022-12-20T11:06:46;3.77;;;0.90;;
69244;SDS011;56357;52.304;4.870;2022-12-20T11:09:21;4.22;;;0.77;;
69244;SDS011;56357;52.304;4.870;2022-12-20T11:14:33;3.60;;;0.98;;
69244;SDS011;56357;52.304;4.870;2022-12-20T11:17:48;3.60;;;0.80;;
69244;SDS011;56357;52.304;4.870;2022-12-20T11:30:57;3.58;;;0.88;;
69244;SDS011;56357;52.304;4.870;2022-12-20T11:39:09;3.83;;;0.75;;
69244;SDS011;56357;52.304;4.870;2022-12-20T11:41:44;4.20;;;1.02;;
69244;SDS011;56357;52.304;4.870;2022-12-20T11:46:59;3.97;;;1.13;;
69244;SDS011;56357;52.304;4.870;2022-12-20T11:55:40;3.38;;;0.82;;
69244;SDS011;56357;52.304;4.870;2022-12-20T12:03:35;3.90;;;0.75;;
69244;SDS011;56357;52.304;4.870;2022-12-20T12:06:18;3.60;;;1.00;;
69244;SDS011;56357;52.304;4.870;2022-12-20T12:09:14;3.85;;;0.85;;
69244;SDS011;56357;52.304;4.870;2022-12-20T12:12:32;4.07;;;0.77;;
69244;SDS011;56357;52.304;4.870;2022-12-20T12:14:48;3.53;;;0.87;;
69244;SDS011;56357;52.304;4.870;2022-12-20T12:17:28;4.13;;;0.80;;
69244;SDS011;56357;52.304;4.870;2022-12-20T12:20:19;3.17;;;0.73;;
69244;SDS011;56357;52.304;4.870;2022-12-20T12:23:30;4.10;;;1.00;;
69244;SDS011;56357;52.304;4.870;2022-12-20T12:26:39;5.40;;;0.90;;
69244;SDS011;56357;52.304;4.870;2022-12-20T12:29:04;4.70;;;1.00;;
69244;SDS011;56357;52.304;4.870;2022-12-20T12:34:12;4.32;;;0.90;;
69244;SDS011;56357;52.304;4.870;2022-12-20T12:45:36;4.28;;;0.68;;
69244;SDS011;56357;52.304;4.870;2022-12-20T12:48:19;4.85;;;0.80;;
69244;SDS011;56357;52.304;4.870;2022-12-20T12:50:48;3.45;;;0.85;;
69244;SDS011;56357;52.304;4.870;2022-12-20T12:59:08;5.10;;;0.80;;
69244;SDS011;56357;52.304;4.870;2022-12-20T13:02:25;4.10;;;0.50;;
69244;SDS011;56357;52.304;4.870;2022-12-20T13:04:28;3.55;;;0.88;;
69244;SDS011;56357;52.304;4.870;2022-12-20T13:06:58;4.00;;;0.90;;
69244;SDS011;56357;52.304;4.870;2022-12-20T13:11:54;3.90;;;0.90;;
69244;SDS011;56357;52.304;4.870;2022-12-20T13:19:38;3.83;;;0.80;;
69244;SDS011;56357;52.304;4.870;2022-12-20T13:24:55;3.80;;;0.60;;
69244;SDS011;56357;52.304;4.870;2022-12-20T13:29:57;4.07;;;0.80;;
69244;SDS011;56357;52.304;4.870;2022-12-20T13:32:47;3.20;;;0.60;;
69244;SDS011;56357;52.304;4.870;2022-12-20T13:37:51;4.43;;;0.90;;
69244;SDS011;56357;52.304;4.870;2022-12-20T13:40:20;3.85;;;0.60;;
69244;SDS011;56357;52.304;4.870;2022-12-20T13:42:55;3.80;;;1.02;;
69244;SDS011;56357;52.304;4.870;2022-12-20T13:45:24;4.28;;;1.02;;
69244;SDS011;56357;52.304;4.870;2022-12-20T13:48:00;3.83;;;1.10;;
69244;SDS011;56357;52.304;4.870;2022-12-20T13:50:31;3.53;;;0.73;;
69244;SDS011;56357;52.304;4.870;2022-12-20T13:53:02;4.60;;;0.60;;
69244;SDS011;56357;52.304;4.870;2022-12-20T13:58:10;2.85;;;0.70;;
69244;SDS011;56357;52.304;4.870;2022-12-20T14:00:39;4.87;;;1.30;;
69244;SDS011;56357;52.304;4.870;2022-12-20T14:03:12;4.82;;;0.90;;
69244;SDS011;56357;52.304;4.870;2022-12-20T14:05:52;3.45;;;0.93;;
69244;SDS011;56357;52.304;4.870;2022-12-20T14:08:24;3.97;;;0.90;;
69244;SDS011;56357;52.304;4.870;2022-12-20T14:10:54;3.30;;;0.75;;
69244;SDS011;56357;52.304;4.870;2022-12-20T14:13:24;3.70;;;0.90;;
69244;SDS011;56357;52.304;4.870;2022-12-20T14:15:53;3.70;;;0.93;;
69244;SDS011;56357;52.304;4.870;2022-12-20T14:20:50;3.28;;;0.55;;
69244;SDS011;56357;52.304;4.870;2022-12-20T14:26:05;4.30;;;1.00;;
69244;SDS011;56357;52.304;4.870;2022-12-20T14:28:36;3.30;;;0.77;;
69244;SDS011;56357;52.304;4.870;2022-12-20T14:31:06;2.67;;;0.70;;
69244;SDS011;56357;52.304;4.870;2022-12-20T14:33:47;3.60;;;1.00;;
69244;SDS011;56357;52.304;4.870;2022-12-20T14:38:43;3.30;;;0.80;;
69244;SDS011;56357;52.304;4.870;2022-12-20T14:46:33;3.17;;;0.70;;
69244;SDS011;56357;52.304;4.870;2022-12-20T14:49:05;3.70;;;0.68;;
69244;SDS011;56357;52.304;4.870;2022-12-20T14:51:48;3.30;;;0.90;;
69244;SDS011;56357;52.304;4.870;2022-12-20T14:54:18;3.38;;;0.80;;
69244;SDS011;56357;52.304;4.870;2022-12-20T14:56:48;3.75;;;0.88;;
69244;SDS011;56357;52.304;4.870;2022-12-20T14:59:16;4.40;;;0.70;;
69244;SDS011;56357;52.304;4.870;2022-12-20T15:01:50;3.28;;;0.80;;
69244;SDS011;56357;52.304;4.870;2022-12-20T15:04:24;3.90;;;0.80;;
69244;SDS011;56357;52.304;4.870;2022-12-20T15:06:57;3.20;;;0.70;;
69244;SDS011;56357;52.304;4.870;2022-12-20T15:09:24;4.32;;;0.90;;
69244;SDS011;56357;52.304;4.870;2022-12-20T15:11:51;3.97;;;1.10;;
69244;SDS011;56357;52.304;4.870;2022-12-20T15:14:37;4.20;;;0.80;;
69244;SDS011;56357;52.304;4.870;2022-12-20T15:17:08;3.30;;;1.00;;
69244;SDS011;56357;52.304;4.870;2022-12-20T15:19:37;5.30;;;0.80;;
69244;SDS011;56357;52.304;4.870;2022-12-20T15:22:03;4.50;;;1.00;;
69244;SDS011;56357;52.304;4.870;2022-12-20T15:24:31;3.95;;;0.60;;
69244;SDS011;56357;52.304;4.870;2022-12-20T15:26:57;4.05;;;1.00;;
69244;SDS011;56357;52.304;4.870;2022-12-20T15:29:27;3.20;;;0.93;;
69244;SDS011;56357;52.304;4.870;2022-12-20T15:32:10;3.30;;;0.70;;
69244;SDS011;56357;52.304;4.870;2022-12-20T15:34:42;4.68;;;1.40;;
69244;SDS011;56357;52.304;4.870;2022-12-20T15:37:09;4.57;;;1.20;;
69244;SDS011;56357;52.304;4.870;2022-12-20T15:39:40;3.72;;;0.90;;
69244;SDS011;56357;52.304;4.870;2022-12-20T15:42:09;4.53;;;1.13;;
69244;SDS011;56357;52.304;4.870;2022-12-20T15:44:41;4.35;;;1.10;;
69244;SDS011;56357;52.304;4.870;2022-12-20T15:47:11;8.30;;;1.40;;
69244;SDS011;56357;52.304;4.870;2022-12-20T15:49:38;8.18;;;1.10;;
69244;SDS011;56357;52.304;4.870;2022-12-20T15:52:05;4.82;;;1.65;;
69244;SDS011;56357;52.304;4.870;2022-12-20T15:54:41;4.40;;;0.97;;
69244;SDS011;56357;52.304;4.870;2022-12-20T15:57:08;5.68;;;1.38;;
69244;SDS011;56357;52.304;4.870;2022-12-20T15:59:38;4.75;;;1.08;;
69244;SDS011;56357;52.304;4.870;2022-12-20T16:04:46;6.13;;;1.10;;
69244;SDS011;56357;52.304;4.870;2022-12-20T16:07:14;5.67;;;1.50;;
69244;SDS011;56357;52.304;4.870;2022-12-20T16:09:41;5.40;;;1.40;;
69244;SDS011;56357;52.304;4.870;2022-12-20T16:12:18;8.38;;;1.63;;
69244;SDS011;56357;52.304;4.870;2022-12-20T16:14:49;7.43;;;1.88;;
69244;SDS011;56357;52.304;4.870;2022-12-20T16:17:16;5.65;;;1.60;;
69244;SDS011;56357;52.304;4.870;2022-12-20T16:19:42;7.43;;;1.80;;
69244;SDS011;56357;52.304;4.870;2022-12-20T16:22:16;5.97;;;2.75;;
69244;SDS011;56357;52.304;4.870;2022-12-20T16:24:44;6.47;;;2.33;;
69244;SDS011;56357;52.304;4.870;2022-12-20T16:27:11;7.35;;;2.80;;
69244;SDS011;56357;52.304;4.870;2022-12-20T16:29:38;9.63;;;3.10;;
69244;SDS011;56357;52.304;4.870;2022-12-20T16:32:15;8.27;;;2.70;;
69244;SDS011;56357;52.304;4.870;2022-12-20T16:34:43;8.82;;;2.90;;
69244;SDS011;56357;52.304;4.870;2022-12-20T16:37:10;8.10;;;2.70;;
69244;SDS011;56357;52.304;4.870;2022-12-20T16:39:37;7.70;;;2.25;;
69244;SDS011;56357;52.304;4.870;2022-12-20T16:42:13;8.20;;;2.25;;
69244;SDS011;56357;52.304;4.870;2022-12-20T16:44:42;11.90;;;2.60;;
69244;SDS011;56357;52.304;4.870;2022-12-20T16:47:09;6.97;;;2.78;;
69244;SDS011;56357;52.304;4.870;2022-12-20T16:49:36;9.18;;;2.45;;
69244;SDS011;56357;52.304;4.870;2022-12-20T16:52:04;6.72;;;3.40;;
69244;SDS011;56357;52.304;4.870;2022-12-20T16:54:30;6.30;;;2.35;;
69244;SDS011;56357;52.304;4.870;2022-12-20T16:56:57;9.43;;;2.33;;
69244;SDS011;56357;52.304;4.870;2022-12-20T16:59:24;7.65;;;2.50;;
69244;SDS011;56357;52.304;4.870;2022-12-20T17:01:52;7.53;;;2.65;;
69244;SDS011;56357;52.304;4.870;2022-12-20T17:04:21;7.45;;;2.53;;
69244;SDS011;56357;52.304;4.870;2022-12-20T17:06:48;10.02;;;2.67;;
69244;SDS011;56357;52.304;4.870;2022-12-20T17:09:15;5.50;;;2.03;;
69244;SDS011;56357;52.304;4.870;2022-12-20T17:11:43;10.75;;;2.58;;
69244;SDS011;56357;52.304;4.870;2022-12-20T17:14:12;8.10;;;2.00;;
69244;SDS011;56357;52.304;4.870;2022-12-20T17:16:39;8.02;;;2.85;;